KMPZ/MPZ METAR and TAF weather

Enter ICAO airport designator
Station Type Date Time Source
KMPZ METAR 2021/07/31 00:15 UTC NOAA

KMPZ 310015Z AUTO 08005KT 10SM CLR 24/19 A3011 RMK AO2


Station Type Date Time Source
KMPZ Decoded METAR 2021/07/31 00:15 UTC NOAA

Mount Pleasant, Mount Pleasant Municipal Airport, IA, United States (KMPZ) 40-56-48N 091-30-40W
Jul 30, 2021 - 08:15 PM EDT / 2021.07.31 0015 UTC
Wind: from the E (080 degrees) at 6 MPH (5 KT):0
Visibility: 10 mile(s):0
Sky conditions: clear
Temperature: 75 F (24 C)
Dew Point: 66 F (19 C)
Relative Humidity: 73%
Pressure (altimeter): 30.11 in. Hg (1019 hPa)
ob: KMPZ 310015Z AUTO 08005KT 10SM CLR 24/19 A3011 RMK AO2
cycle: 0

Station Type Date Time Source
KMPZ TAF UTC NOAA

Error!

Example: see airport list